sensor_id;sensor_type;location;lat;lon;timestamp;P1;durP1;ratioP1;P2;durP2;ratioP2
59006;SDS011;44792;52.760;6.726;2023-05-23T00:01:40;25.88;;;13.13;;
59006;SDS011;44792;52.760;6.726;2023-05-23T00:04:07;31.25;;;13.75;;
59006;SDS011;44792;52.760;6.726;2023-05-23T00:06:34;31.98;;;13.63;;
59006;SDS011;44792;52.760;6.726;2023-05-23T00:09:00;31.85;;;13.75;;
59006;SDS011;44792;52.760;6.726;2023-05-23T00:11:26;29.15;;;13.75;;
59006;SDS011;44792;52.760;6.726;2023-05-23T00:13:53;32.72;;;13.10;;
59006;SDS011;44792;52.760;6.726;2023-05-23T00:16:19;29.42;;;13.90;;
59006;SDS011;44792;52.760;6.726;2023-05-23T00:18:47;28.20;;;12.75;;
59006;SDS011;44792;52.760;6.726;2023-05-23T00:21:14;25.05;;;11.38;;
59006;SDS011;44792;52.760;6.726;2023-05-23T00:23:41;17.55;;;10.40;;
59006;SDS011;44792;52.760;6.726;2023-05-23T00:26:07;20.73;;;9.82;;
59006;SDS011;44792;52.760;6.726;2023-05-23T00:28:33;18.98;;;9.88;;
59006;SDS011;44792;52.760;6.726;2023-05-23T00:30:59;20.77;;;11.18;;
59006;SDS011;44792;52.760;6.726;2023-05-23T00:33:25;16.88;;;9.32;;
59006;SDS011;44792;52.760;6.726;2023-05-23T00:35:51;18.77;;;9.10;;
59006;SDS011;44792;52.760;6.726;2023-05-23T00:38:17;15.43;;;9.52;;
59006;SDS011;44792;52.760;6.726;2023-05-23T00:40:43;15.90;;;8.80;;
59006;SDS011;44792;52.760;6.726;2023-05-23T00:43:09;14.70;;;8.77;;
59006;SDS011;44792;52.760;6.726;2023-05-23T00:45:35;17.58;;;9.13;;
59006;SDS011;44792;52.760;6.726;2023-05-23T00:48:00;15.05;;;9.13;;
59006;SDS011;44792;52.760;6.726;2023-05-23T00:50:27;14.10;;;8.40;;
59006;SDS011;44792;52.760;6.726;2023-05-23T00:52:54;12.43;;;7.63;;
59006;SDS011;44792;52.760;6.726;2023-05-23T00:55:22;12.93;;;7.55;;
59006;SDS011;44792;52.760;6.726;2023-05-23T00:57:49;14.15;;;7.93;;
59006;SDS011;44792;52.760;6.726;2023-05-23T01:00:18;15.57;;;8.07;;
59006;SDS011;44792;52.760;6.726;2023-05-23T01:02:46;13.25;;;7.85;;
59006;SDS011;44792;52.760;6.726;2023-05-23T01:05:15;10.98;;;7.53;;
59006;SDS011;44792;52.760;6.726;2023-05-23T01:07:42;11.90;;;7.78;;
59006;SDS011;44792;52.760;6.726;2023-05-23T01:10:09;14.80;;;8.38;;
59006;SDS011;44792;52.760;6.726;2023-05-23T01:15:23;14.57;;;8.68;;
59006;SDS011;44792;52.760;6.726;2023-05-23T01:20:58;13.00;;;8.93;;
59006;SDS011;44792;52.760;6.726;2023-05-23T01:29:06;13.70;;;9.23;;
59006;SDS011;44792;52.760;6.726;2023-05-23T01:31:44;12.82;;;8.38;;
59006;SDS011;44792;52.760;6.726;2023-05-23T01:34:12;13.02;;;7.78;;
59006;SDS011;44792;52.760;6.726;2023-05-23T01:36:39;16.70;;;8.38;;
59006;SDS011;44792;52.760;6.726;2023-05-23T01:39:07;16.63;;;8.52;;
59006;SDS011;44792;52.760;6.726;2023-05-23T01:41:32;12.25;;;8.38;;
59006;SDS011;44792;52.760;6.726;2023-05-23T01:43:58;15.32;;;8.88;;
59006;SDS011;44792;52.760;6.726;2023-05-23T01:46:25;12.80;;;8.07;;
59006;SDS011;44792;52.760;6.726;2023-05-23T01:48:52;17.58;;;9.82;;
59006;SDS011;44792;52.760;6.726;2023-05-23T01:51:20;21.50;;;11.18;;
59006;SDS011;44792;52.760;6.726;2023-05-23T01:53:47;16.45;;;11.02;;
59006;SDS011;44792;52.760;6.726;2023-05-23T01:56:14;17.10;;;10.55;;
59006;SDS011;44792;52.760;6.726;2023-05-23T01:58:41;15.95;;;9.88;;
59006;SDS011;44792;52.760;6.726;2023-05-23T02:01:07;14.60;;;9.63;;
59006;SDS011;44792;52.760;6.726;2023-05-23T02:03:34;20.15;;;10.52;;
59006;SDS011;44792;52.760;6.726;2023-05-23T02:06:02;15.05;;;9.90;;
59006;SDS011;44792;52.760;6.726;2023-05-23T02:08:28;18.52;;;11.55;;
59006;SDS011;44792;52.760;6.726;2023-05-23T02:10:53;17.55;;;9.95;;
59006;SDS011;44792;52.760;6.726;2023-05-23T02:13:19;13.30;;;8.45;;
59006;SDS011;44792;52.760;6.726;2023-05-23T02:15:45;17.38;;;7.78;;
59006;SDS011;44792;52.760;6.726;2023-05-23T02:18:10;13.50;;;8.73;;
59006;SDS011;44792;52.760;6.726;2023-05-23T02:20:37;15.65;;;8.40;;
59006;SDS011;44792;52.760;6.726;2023-05-23T02:23:02;14.77;;;7.85;;
59006;SDS011;44792;52.760;6.726;2023-05-23T02:25:28;17.30;;;8.07;;
59006;SDS011;44792;52.760;6.726;2023-05-23T02:27:54;10.80;;;7.15;;
59006;SDS011;44792;52.760;6.726;2023-05-23T02:30:19;10.70;;;7.18;;
59006;SDS011;44792;52.760;6.726;2023-05-23T02:32:45;15.52;;;8.20;;
59006;SDS011;44792;52.760;6.726;2023-05-23T02:35:11;15.27;;;7.15;;
59006;SDS011;44792;52.760;6.726;2023-05-23T02:37:37;13.25;;;7.80;;
59006;SDS011;44792;52.760;6.726;2023-05-23T02:40:04;14.75;;;7.63;;
59006;SDS011;44792;52.760;6.726;2023-05-23T02:42:32;15.48;;;7.90;;
59006;SDS011;44792;52.760;6.726;2023-05-23T02:44:58;15.30;;;7.80;;
59006;SDS011;44792;52.760;6.726;2023-05-23T02:47:23;15.15;;;8.18;;
59006;SDS011;44792;52.760;6.726;2023-05-23T02:49:49;16.40;;;7.57;;
59006;SDS011;44792;52.760;6.726;2023-05-23T02:52:15;17.75;;;7.55;;
59006;SDS011;44792;52.760;6.726;2023-05-23T02:54:41;16.40;;;7.75;;
59006;SDS011;44792;52.760;6.726;2023-05-23T02:57:07;18.55;;;7.88;;
59006;SDS011;44792;52.760;6.726;2023-05-23T02:59:33;13.60;;;7.00;;
59006;SDS011;44792;52.760;6.726;2023-05-23T03:01:59;17.92;;;7.78;;
59006;SDS011;44792;52.760;6.726;2023-05-23T03:04:24;12.52;;;7.28;;
59006;SDS011;44792;52.760;6.726;2023-05-23T03:06:51;18.70;;;7.38;;
59006;SDS011;44792;52.760;6.726;2023-05-23T03:09:18;14.35;;;6.60;;
59006;SDS011;44792;52.760;6.726;2023-05-23T03:11:44;13.45;;;6.15;;
59006;SDS011;44792;52.760;6.726;2023-05-23T03:14:10;14.02;;;6.53;;
59006;SDS011;44792;52.760;6.726;2023-05-23T03:16:36;15.25;;;6.65;;
59006;SDS011;44792;52.760;6.726;2023-05-23T03:19:02;11.57;;;5.97;;
59006;SDS011;44792;52.760;6.726;2023-05-23T03:21:28;11.00;;;5.80;;
59006;SDS011;44792;52.760;6.726;2023-05-23T03:23:56;12.02;;;6.05;;
59006;SDS011;44792;52.760;6.726;2023-05-23T03:26:21;12.98;;;5.50;;
59006;SDS011;44792;52.760;6.726;2023-05-23T03:28:48;15.90;;;5.25;;
59006;SDS011;44792;52.760;6.726;2023-05-23T03:31:15;12.75;;;6.22;;
59006;SDS011;44792;52.760;6.726;2023-05-23T03:33:41;13.15;;;6.03;;
59006;SDS011;44792;52.760;6.726;2023-05-23T03:36:07;14.48;;;6.35;;
59006;SDS011;44792;52.760;6.726;2023-05-23T03:38:32;16.80;;;6.13;;
59006;SDS011;44792;52.760;6.726;2023-05-23T03:40:58;12.32;;;6.03;;
59006;SDS011;44792;52.760;6.726;2023-05-23T03:43:24;14.40;;;6.68;;
59006;SDS011;44792;52.760;6.726;2023-05-23T03:45:49;16.55;;;6.93;;
59006;SDS011;44792;52.760;6.726;2023-05-23T03:48:15;11.35;;;6.03;;
59006;SDS011;44792;52.760;6.726;2023-05-23T03:50:41;15.93;;;5.80;;
59006;SDS011;44792;52.760;6.726;2023-05-23T03:53:07;17.73;;;6.05;;
59006;SDS011;44792;52.760;6.726;2023-05-23T03:55:32;17.08;;;5.72;;
59006;SDS011;44792;52.760;6.726;2023-05-23T03:57:58;12.95;;;5.78;;
59006;SDS011;44792;52.760;6.726;2023-05-23T04:00:24;22.20;;;6.88;;
59006;SDS011;44792;52.760;6.726;2023-05-23T04:02:50;17.15;;;6.57;;
59006;SDS011;44792;52.760;6.726;2023-05-23T04:05:16;18.10;;;5.75;;
59006;SDS011;44792;52.760;6.726;2023-05-23T04:07:42;19.20;;;5.93;;
59006;SDS011;44792;52.760;6.726;2023-05-23T04:10:08;12.27;;;5.43;;
59006;SDS011;44792;52.760;6.726;2023-05-23T04:12:35;14.02;;;5.97;;
59006;SDS011;44792;52.760;6.726;2023-05-23T04:15:01;13.95;;;5.50;;
59006;SDS011;44792;52.760;6.726;2023-05-23T04:17:27;21.27;;;5.95;;
59006;SDS011;44792;52.760;6.726;2023-05-23T04:19:55;13.77;;;5.10;;
59006;SDS011;44792;52.760;6.726;2023-05-23T04:22:21;15.95;;;5.32;;
59006;SDS011;44792;52.760;6.726;2023-05-23T04:24:47;13.88;;;6.50;;
59006;SDS011;44792;52.760;6.726;2023-05-23T04:27:13;14.05;;;4.90;;
59006;SDS011;44792;52.760;6.726;2023-05-23T04:29:38;14.30;;;5.05;;
59006;SDS011;44792;52.760;6.726;2023-05-23T04:32:05;14.85;;;4.95;;
59006;SDS011;44792;52.760;6.726;2023-05-23T04:34:31;13.43;;;5.07;;
59006;SDS011;44792;52.760;6.726;2023-05-23T04:36:58;16.42;;;5.25;;
59006;SDS011;44792;52.760;6.726;2023-05-23T04:39:26;13.32;;;5.28;;
59006;SDS011;44792;52.760;6.726;2023-05-23T04:41:52;15.82;;;5.07;;
59006;SDS011;44792;52.760;6.726;2023-05-23T04:44:18;13.98;;;5.00;;
59006;SDS011;44792;52.760;6.726;2023-05-23T04:46:44;9.88;;;5.20;;
59006;SDS011;44792;52.760;6.726;2023-05-23T04:49:10;13.15;;;5.03;;
59006;SDS011;44792;52.760;6.726;2023-05-23T04:51:37;12.02;;;4.75;;
59006;SDS011;44792;52.760;6.726;2023-05-23T04:54:03;9.68;;;4.78;;
59006;SDS011;44792;52.760;6.726;2023-05-23T04:56:29;8.15;;;3.88;;
59006;SDS011;44792;52.760;6.726;2023-05-23T04:58:55;10.00;;;4.05;;
59006;SDS011;44792;52.760;6.726;2023-05-23T05:01:21;7.88;;;4.10;;
59006;SDS011;44792;52.760;6.726;2023-05-23T05:03:48;11.65;;;3.92;;
59006;SDS011;44792;52.760;6.726;2023-05-23T05:06:15;8.50;;;3.92;;
59006;SDS011;44792;52.760;6.726;2023-05-23T05:08:41;7.65;;;3.60;;
59006;SDS011;44792;52.760;6.726;2023-05-23T05:11:08;8.48;;;4.13;;
59006;SDS011;44792;52.760;6.726;2023-05-23T05:13:34;12.30;;;4.63;;
59006;SDS011;44792;52.760;6.726;2023-05-23T05:16:00;8.70;;;3.75;;
59006;SDS011;44792;52.760;6.726;2023-05-23T05:18:27;10.02;;;4.05;;
59006;SDS011;44792;52.760;6.726;2023-05-23T05:20:53;8.93;;;4.47;;
59006;SDS011;44792;52.760;6.726;2023-05-23T05:23:20;10.98;;;4.43;;
59006;SDS011;44792;52.760;6.726;2023-05-23T05:25:49;9.75;;;4.10;;
59006;SDS011;44792;52.760;6.726;2023-05-23T05:28:15;9.35;;;4.13;;
59006;SDS011;44792;52.760;6.726;2023-05-23T05:30:40;8.48;;;3.53;;
59006;SDS011;44792;52.760;6.726;2023-05-23T05:33:06;13.70;;;3.95;;
59006;SDS011;44792;52.760;6.726;2023-05-23T05:35:33;10.77;;;3.65;;
59006;SDS011;44792;52.760;6.726;2023-05-23T05:37:59;9.73;;;3.40;;
59006;SDS011;44792;52.760;6.726;2023-05-23T05:40:28;9.32;;;3.95;;
59006;SDS011;44792;52.760;6.726;2023-05-23T05:42:55;9.02;;;3.30;;
59006;SDS011;44792;52.760;6.726;2023-05-23T05:45:21;10.77;;;3.67;;
59006;SDS011;44792;52.760;6.726;2023-05-23T05:47:47;12.63;;;4.35;;
59006;SDS011;44792;52.760;6.726;2023-05-23T05:50:13;13.25;;;4.30;;
59006;SDS011;44792;52.760;6.726;2023-05-23T05:52:39;10.13;;;4.13;;
59006;SDS011;44792;52.760;6.726;2023-05-23T05:55:09;10.60;;;4.22;;
59006;SDS011;44792;52.760;6.726;2023-05-23T05:57:38;11.80;;;4.00;;
59006;SDS011;44792;52.760;6.726;2023-05-23T06:00:05;13.48;;;4.75;;
59006;SDS011;44792;52.760;6.726;2023-05-23T06:02:42;10.48;;;4.85;;
59006;SDS011;44792;52.760;6.726;2023-05-23T06:05:08;15.20;;;4.88;;
59006;SDS011;44792;52.760;6.726;2023-05-23T06:07:38;12.88;;;4.63;;
59006;SDS011;44792;52.760;6.726;2023-05-23T06:10:05;13.63;;;5.10;;
59006;SDS011;44792;52.760;6.726;2023-05-23T06:12:31;12.15;;;5.35;;
59006;SDS011;44792;52.760;6.726;2023-05-23T06:14:57;14.75;;;5.88;;
59006;SDS011;44792;52.760;6.726;2023-05-23T06:17:23;14.27;;;5.40;;
59006;SDS011;44792;52.760;6.726;2023-05-23T06:19:49;15.10;;;5.50;;
59006;SDS011;44792;52.760;6.726;2023-05-23T06:22:15;13.18;;;5.15;;
59006;SDS011;44792;52.760;6.726;2023-05-23T06:24:41;13.07;;;4.97;;
59006;SDS011;44792;52.760;6.726;2023-05-23T06:27:07;8.80;;;5.10;;
59006;SDS011;44792;52.760;6.726;2023-05-23T06:29:33;13.88;;;4.97;;
59006;SDS011;44792;52.760;6.726;2023-05-23T06:32:00;12.13;;;5.55;;
59006;SDS011;44792;52.760;6.726;2023-05-23T06:34:26;13.20;;;5.43;;
59006;SDS011;44792;52.760;6.726;2023-05-23T06:36:53;12.95;;;4.15;;
59006;SDS011;44792;52.760;6.726;2023-05-23T06:39:19;14.88;;;5.03;;
59006;SDS011;44792;52.760;6.726;2023-05-23T06:41:45;19.73;;;6.10;;
59006;SDS011;44792;52.760;6.726;2023-05-23T06:44:11;11.00;;;3.95;;
59006;SDS011;44792;52.760;6.726;2023-05-23T06:46:37;9.80;;;4.00;;
59006;SDS011;44792;52.760;6.726;2023-05-23T06:49:03;10.43;;;4.97;;
59006;SDS011;44792;52.760;6.726;2023-05-23T06:51:28;11.35;;;4.03;;
59006;SDS011;44792;52.760;6.726;2023-05-23T06:53:55;10.25;;;4.13;;
59006;SDS011;44792;52.760;6.726;2023-05-23T06:56:23;11.15;;;4.65;;
59006;SDS011;44792;52.760;6.726;2023-05-23T06:58:50;7.97;;;4.00;;
59006;SDS011;44792;52.760;6.726;2023-05-23T07:01:16;11.82;;;4.57;;
59006;SDS011;44792;52.760;6.726;2023-05-23T07:03:41;10.88;;;3.58;;
59006;SDS011;44792;52.760;6.726;2023-05-23T07:06:09;6.28;;;2.97;;
59006;SDS011;44792;52.760;6.726;2023-05-23T07:08:35;9.85;;;3.25;;
59006;SDS011;44792;52.760;6.726;2023-05-23T07:11:01;9.35;;;3.28;;
59006;SDS011;44792;52.760;6.726;2023-05-23T07:13:27;10.07;;;3.40;;
59006;SDS011;44792;52.760;6.726;2023-05-23T07:15:53;12.55;;;3.15;;
59006;SDS011;44792;52.760;6.726;2023-05-23T07:18:20;13.57;;;2.97;;
59006;SDS011;44792;52.760;6.726;2023-05-23T07:20:46;8.55;;;2.72;;
59006;SDS011;44792;52.760;6.726;2023-05-23T07:23:11;10.10;;;3.47;;
59006;SDS011;44792;52.760;6.726;2023-05-23T07:25:37;10.10;;;3.67;;
59006;SDS011;44792;52.760;6.726;2023-05-23T07:28:04;12.65;;;2.97;;
59006;SDS011;44792;52.760;6.726;2023-05-23T07:30:30;10.07;;;3.22;;
59006;SDS011;44792;52.760;6.726;2023-05-23T07:32:56;8.35;;;2.72;;
59006;SDS011;44792;52.760;6.726;2023-05-23T07:35:21;14.38;;;3.22;;
59006;SDS011;44792;52.760;6.726;2023-05-23T07:37:53;9.27;;;4.03;;
59006;SDS011;44792;52.760;6.726;2023-05-23T07:40:20;14.32;;;3.63;;
59006;SDS011;44792;52.760;6.726;2023-05-23T07:42:46;8.52;;;2.70;;
59006;SDS011;44792;52.760;6.726;2023-05-23T07:45:12;12.60;;;3.70;;
59006;SDS011;44792;52.760;6.726;2023-05-23T07:47:39;9.45;;;2.63;;
59006;SDS011;44792;52.760;6.726;2023-05-23T07:50:05;11.38;;;3.30;;
59006;SDS011;44792;52.760;6.726;2023-05-23T07:52:31;14.18;;;4.50;;
59006;SDS011;44792;52.760;6.726;2023-05-23T07:54:57;17.48;;;3.53;;
59006;SDS011;44792;52.760;6.726;2023-05-23T07:57:23;15.18;;;2.83;;
59006;SDS011;44792;52.760;6.726;2023-05-23T07:59:50;16.23;;;3.58;;
59006;SDS011;44792;52.760;6.726;2023-05-23T08:02:16;11.57;;;3.63;;
59006;SDS011;44792;52.760;6.726;2023-05-23T08:04:42;10.95;;;4.05;;
59006;SDS011;44792;52.760;6.726;2023-05-23T08:07:09;11.98;;;3.20;;
59006;SDS011;44792;52.760;6.726;2023-05-23T08:09:36;14.48;;;3.50;;
59006;SDS011;44792;52.760;6.726;2023-05-23T08:12:02;10.25;;;3.20;;
59006;SDS011;44792;52.760;6.726;2023-05-23T08:14:31;15.70;;;3.55;;
59006;SDS011;44792;52.760;6.726;2023-05-23T08:16:57;15.60;;;4.68;;
59006;SDS011;44792;52.760;6.726;2023-05-23T08:19:23;7.90;;;2.50;;
59006;SDS011;44792;52.760;6.726;2023-05-23T08:21:48;12.88;;;3.55;;
59006;SDS011;44792;52.760;6.726;2023-05-23T08:24:14;11.43;;;3.13;;
59006;SDS011;44792;52.760;6.726;2023-05-23T08:26:40;12.32;;;3.95;;
59006;SDS011;44792;52.760;6.726;2023-05-23T08:29:06;8.23;;;3.13;;
59006;SDS011;44792;52.760;6.726;2023-05-23T08:31:33;11.68;;;2.45;;
59006;SDS011;44792;52.760;6.726;2023-05-23T08:34:00;12.45;;;2.65;;
59006;SDS011;44792;52.760;6.726;2023-05-23T08:36:26;17.80;;;3.33;;
59006;SDS011;44792;52.760;6.726;2023-05-23T08:38:51;15.80;;;3.25;;
59006;SDS011;44792;52.760;6.726;2023-05-23T08:41:18;24.70;;;3.42;;
59006;SDS011;44792;52.760;6.726;2023-05-23T08:43:45;11.93;;;2.53;;
59006;SDS011;44792;52.760;6.726;2023-05-23T08:46:11;14.60;;;2.65;;
59006;SDS011;44792;52.760;6.726;2023-05-23T08:48:37;10.43;;;2.65;;
59006;SDS011;44792;52.760;6.726;2023-05-23T08:51:04;11.30;;;2.90;;
59006;SDS011;44792;52.760;6.726;2023-05-23T08:53:30;15.52;;;2.90;;
59006;SDS011;44792;52.760;6.726;2023-05-23T08:55:58;9.10;;;2.88;;
59006;SDS011;44792;52.760;6.726;2023-05-23T08:58:30;10.20;;;2.47;;
59006;SDS011;44792;52.760;6.726;2023-05-23T09:00:56;10.77;;;2.80;;
59006;SDS011;44792;52.760;6.726;2023-05-23T09:03:26;12.05;;;3.03;;
59006;SDS011;44792;52.760;6.726;2023-05-23T09:05:53;12.95;;;2.53;;
59006;SDS011;44792;52.760;6.726;2023-05-23T09:08:19;13.45;;;3.45;;
59006;SDS011;44792;52.760;6.726;2023-05-23T09:10:46;14.82;;;3.33;;
59006;SDS011;44792;52.760;6.726;2023-05-23T09:13:14;13.00;;;3.05;;
59006;SDS011;44792;52.760;6.726;2023-05-23T09:18:48;16.88;;;3.17;;
59006;SDS011;44792;52.760;6.726;2023-05-23T09:21:14;9.07;;;2.15;;
59006;SDS011;44792;52.760;6.726;2023-05-23T09:23:40;12.13;;;2.67;;
59006;SDS011;44792;52.760;6.726;2023-05-23T09:26:09;13.38;;;3.08;;
59006;SDS011;44792;52.760;6.726;2023-05-23T09:28:37;14.27;;;2.92;;
59006;SDS011;44792;52.760;6.726;2023-05-23T09:31:06;13.57;;;3.05;;
59006;SDS011;44792;52.760;6.726;2023-05-23T09:33:41;10.55;;;2.67;;
59006;SDS011;44792;52.760;6.726;2023-05-23T09:36:14;11.60;;;2.63;;
59006;SDS011;44792;52.760;6.726;2023-05-23T09:38:41;13.38;;;2.72;;
59006;SDS011;44792;52.760;6.726;2023-05-23T09:41:09;10.70;;;3.03;;
59006;SDS011;44792;52.760;6.726;2023-05-23T09:43:38;13.02;;;2.75;;
59006;SDS011;44792;52.760;6.726;2023-05-23T09:46:08;15.43;;;3.42;;
59006;SDS011;44792;52.760;6.726;2023-05-23T09:48:35;12.93;;;2.70;;
59006;SDS011;44792;52.760;6.726;2023-05-23T09:51:05;12.18;;;2.92;;
59006;SDS011;44792;52.760;6.726;2023-05-23T09:53:34;13.32;;;3.05;;
59006;SDS011;44792;52.760;6.726;2023-05-23T09:56:01;14.77;;;3.15;;
59006;SDS011;44792;52.760;6.726;2023-05-23T09:58:28;11.10;;;2.53;;
59006;SDS011;44792;52.760;6.726;2023-05-23T10:00:55;10.52;;;2.45;;
59006;SDS011;44792;52.760;6.726;2023-05-23T10:06:01;11.32;;;2.83;;
59006;SDS011;44792;52.760;6.726;2023-05-23T10:14:09;10.55;;;2.40;;
59006;SDS011;44792;52.760;6.726;2023-05-23T10:19:37;12.75;;;4.53;;
59006;SDS011;44792;52.760;6.726;2023-05-23T10:22:07;13.13;;;3.22;;
59006;SDS011;44792;52.760;6.726;2023-05-23T10:24:35;11.52;;;2.45;;
59006;SDS011;44792;52.760;6.726;2023-05-23T10:27:01;11.63;;;2.65;;
59006;SDS011;44792;52.760;6.726;2023-05-23T10:29:28;12.00;;;2.72;;
59006;SDS011;44792;52.760;6.726;2023-05-23T10:31:55;7.28;;;2.60;;
59006;SDS011;44792;52.760;6.726;2023-05-23T10:37:03;12.02;;;2.42;;
59006;SDS011;44792;52.760;6.726;2023-05-23T10:42:22;10.07;;;2.05;;
59006;SDS011;44792;52.760;6.726;2023-05-23T10:47:48;11.65;;;2.33;;
59006;SDS011;44792;52.760;6.726;2023-05-23T10:50:29;12.15;;;3.25;;
59006;SDS011;44792;52.760;6.726;2023-05-23T10:53:00;7.10;;;1.83;;
59006;SDS011;44792;52.760;6.726;2023-05-23T10:55:30;8.23;;;2.53;;
59006;SDS011;44792;52.760;6.726;2023-05-23T12:11:30;7.40;;;2.30;;
59006;SDS011;44792;52.760;6.726;2023-05-23T12:13:56;10.05;;;2.20;;
59006;SDS011;44792;52.760;6.726;2023-05-23T12:16:24;10.88;;;2.25;;
59006;SDS011;44792;52.760;6.726;2023-05-23T12:18:49;10.25;;;2.17;;
59006;SDS011;44792;52.760;6.726;2023-05-23T12:21:17;13.13;;;3.75;;
59006;SDS011;44792;52.760;6.726;2023-05-23T12:23:43;9.68;;;2.38;;
59006;SDS011;44792;52.760;6.726;2023-05-23T12:26:09;12.25;;;2.13;;
59006;SDS011;44792;52.760;6.726;2023-05-23T12:28:35;12.07;;;2.53;;
59006;SDS011;44792;52.760;6.726;2023-05-23T12:31:15;8.93;;;2.00;;
59006;SDS011;44792;52.760;6.726;2023-05-23T12:33:47;8.40;;;2.33;;
59006;SDS011;44792;52.760;6.726;2023-05-23T12:36:20;11.15;;;2.15;;
59006;SDS011;44792;52.760;6.726;2023-05-23T12:38:48;6.57;;;2.45;;
59006;SDS011;44792;52.760;6.726;2023-05-23T12:41:17;5.20;;;1.77;;
59006;SDS011;44792;52.760;6.726;2023-05-23T12:43:50;8.65;;;2.22;;
59006;SDS011;44792;52.760;6.726;2023-05-23T12:46:17;10.10;;;2.50;;
59006;SDS011;44792;52.760;6.726;2023-05-23T12:48:44;8.85;;;2.05;;
59006;SDS011;44792;52.760;6.726;2023-05-23T12:51:11;6.65;;;1.92;;
59006;SDS011;44792;52.760;6.726;2023-05-23T12:53:37;9.32;;;2.20;;
59006;SDS011;44792;52.760;6.726;2023-05-23T12:56:03;7.63;;;2.13;;
59006;SDS011;44792;52.760;6.726;2023-05-23T12:58:29;6.22;;;1.98;;
59006;SDS011;44792;52.760;6.726;2023-05-23T13:00:56;12.77;;;1.92;;
59006;SDS011;44792;52.760;6.726;2023-05-23T13:03:22;6.53;;;1.90;;
59006;SDS011;44792;52.760;6.726;2023-05-23T13:05:48;8.45;;;2.00;;
59006;SDS011;44792;52.760;6.726;2023-05-23T13:08:14;8.40;;;1.58;;
59006;SDS011;44792;52.760;6.726;2023-05-23T13:10:40;7.22;;;1.83;;
59006;SDS011;44792;52.760;6.726;2023-05-23T13:13:06;8.18;;;1.95;;
59006;SDS011;44792;52.760;6.726;2023-05-23T13:15:32;11.48;;;3.22;;
59006;SDS011;44792;52.760;6.726;2023-05-23T13:17:58;9.55;;;2.13;;
59006;SDS011;44792;52.760;6.726;2023-05-23T13:20:24;7.05;;;2.00;;
59006;SDS011;44792;52.760;6.726;2023-05-23T13:22:54;6.32;;;1.60;;
59006;SDS011;44792;52.760;6.726;2023-05-23T13:25:23;8.73;;;2.17;;
59006;SDS011;44792;52.760;6.726;2023-05-23T13:27:50;11.38;;;2.17;;
59006;SDS011;44792;52.760;6.726;2023-05-23T13:30:17;7.85;;;2.50;;
59006;SDS011;44792;52.760;6.726;2023-05-23T13:32:46;10.30;;;2.40;;
59006;SDS011;44792;52.760;6.726;2023-05-23T13:35:12;7.75;;;1.65;;
59006;SDS011;44792;52.760;6.726;2023-05-23T13:37:38;6.28;;;2.05;;
59006;SDS011;44792;52.760;6.726;2023-05-23T13:40:04;10.10;;;1.90;;
59006;SDS011;44792;52.760;6.726;2023-05-23T13:42:30;8.77;;;2.67;;
59006;SDS011;44792;52.760;6.726;2023-05-23T13:44:56;9.27;;;1.98;;
59006;SDS011;44792;52.760;6.726;2023-05-23T13:47:22;9.68;;;2.00;;
59006;SDS011;44792;52.760;6.726;2023-05-23T13:49:48;9.00;;;1.77;;
59006;SDS011;44792;52.760;6.726;2023-05-23T13:52:14;9.48;;;2.65;;
59006;SDS011;44792;52.760;6.726;2023-05-23T13:54:40;8.77;;;2.40;;
59006;SDS011;44792;52.760;6.726;2023-05-23T13:57:05;7.50;;;2.35;;
59006;SDS011;44792;52.760;6.726;2023-05-23T13:59:31;9.15;;;2.00;;
59006;SDS011;44792;52.760;6.726;2023-05-23T14:01:57;9.50;;;1.80;;
59006;SDS011;44792;52.760;6.726;2023-05-23T14:04:23;9.82;;;1.95;;
59006;SDS011;44792;52.760;6.726;2023-05-23T14:06:49;8.65;;;2.22;;
59006;SDS011;44792;52.760;6.726;2023-05-23T14:09:15;8.80;;;1.77;;
59006;SDS011;44792;52.760;6.726;2023-05-23T14:11:42;7.72;;;1.77;;
59006;SDS011;44792;52.760;6.726;2023-05-23T14:14:08;7.97;;;1.83;;
59006;SDS011;44792;52.760;6.726;2023-05-23T14:16:34;11.32;;;2.30;;
59006;SDS011;44792;52.760;6.726;2023-05-23T14:18:59;9.77;;;1.77;;
59006;SDS011;44792;52.760;6.726;2023-05-23T14:21:25;7.07;;;2.03;;
59006;SDS011;44792;52.760;6.726;2023-05-23T14:23:52;10.23;;;1.90;;
59006;SDS011;44792;52.760;6.726;2023-05-23T14:26:18;7.65;;;1.80;;
59006;SDS011;44792;52.760;6.726;2023-05-23T14:28:43;8.45;;;1.70;;
59006;SDS011;44792;52.760;6.726;2023-05-23T14:31:09;6.40;;;1.50;;
59006;SDS011;44792;52.760;6.726;2023-05-23T14:33:35;8.93;;;2.42;;
59006;SDS011;44792;52.760;6.726;2023-05-23T14:36:01;8.15;;;1.73;;
59006;SDS011;44792;52.760;6.726;2023-05-23T14:38:27;7.53;;;1.80;;
59006;SDS011;44792;52.760;6.726;2023-05-23T14:40:52;10.68;;;2.10;;
59006;SDS011;44792;52.760;6.726;2023-05-23T14:43:19;6.10;;;1.77;;
59006;SDS011;44792;52.760;6.726;2023-05-23T14:45:45;11.27;;;2.00;;
59006;SDS011;44792;52.760;6.726;2023-05-23T14:48:11;9.15;;;2.00;;
59006;SDS011;44792;52.760;6.726;2023-05-23T14:50:36;5.93;;;1.55;;
59006;SDS011;44792;52.760;6.726;2023-05-23T14:53:03;7.55;;;1.67;;
59006;SDS011;44792;52.760;6.726;2023-05-23T14:55:29;8.38;;;2.00;;
59006;SDS011;44792;52.760;6.726;2023-05-23T14:57:54;9.35;;;1.75;;
59006;SDS011;44792;52.760;6.726;2023-05-23T15:00:21;6.82;;;1.70;;
59006;SDS011;44792;52.760;6.726;2023-05-23T15:02:47;8.15;;;2.03;;
59006;SDS011;44792;52.760;6.726;2023-05-23T15:05:13;8.38;;;2.22;;
59006;SDS011;44792;52.760;6.726;2023-05-23T15:07:39;8.27;;;1.50;;
59006;SDS011;44792;52.760;6.726;2023-05-23T15:10:05;8.60;;;2.05;;
59006;SDS011;44792;52.760;6.726;2023-05-23T15:12:32;6.30;;;1.40;;
59006;SDS011;44792;52.760;6.726;2023-05-23T15:14:58;6.43;;;1.70;;
59006;SDS011;44792;52.760;6.726;2023-05-23T15:17:31;11.63;;;1.60;;
59006;SDS011;44792;52.760;6.726;2023-05-23T15:19:57;10.77;;;2.13;;
59006;SDS011;44792;52.760;6.726;2023-05-23T15:22:23;5.53;;;1.80;;
59006;SDS011;44792;52.760;6.726;2023-05-23T15:24:49;6.00;;;2.65;;
59006;SDS011;44792;52.760;6.726;2023-05-23T15:27:15;4.45;;;1.80;;
59006;SDS011;44792;52.760;6.726;2023-05-23T15:29:41;7.80;;;2.30;;
59006;SDS011;44792;52.760;6.726;2023-05-23T15:32:08;7.65;;;1.88;;
59006;SDS011;44792;52.760;6.726;2023-05-23T15:34:33;7.05;;;1.75;;
59006;SDS011;44792;52.760;6.726;2023-05-23T15:37:00;8.65;;;1.65;;
59006;SDS011;44792;52.760;6.726;2023-05-23T15:39:26;6.00;;;1.95;;
59006;SDS011;44792;52.760;6.726;2023-05-23T15:41:52;8.25;;;2.35;;
59006;SDS011;44792;52.760;6.726;2023-05-23T15:44:18;6.53;;;2.45;;
59006;SDS011;44792;52.760;6.726;2023-05-23T15:46:46;7.13;;;2.15;;
59006;SDS011;44792;52.760;6.726;2023-05-23T15:49:12;9.82;;;2.75;;
59006;SDS011;44792;52.760;6.726;2023-05-23T15:51:38;11.45;;;4.40;;
59006;SDS011;44792;52.760;6.726;2023-05-23T15:54:04;9.85;;;2.75;;
59006;SDS011;44792;52.760;6.726;2023-05-23T15:56:30;5.85;;;2.03;;
59006;SDS011;44792;52.760;6.726;2023-05-23T15:58:55;16.30;;;3.45;;
59006;SDS011;44792;52.760;6.726;2023-05-23T16:01:21;10.48;;;2.20;;
59006;SDS011;44792;52.760;6.726;2023-05-23T16:03:47;10.20;;;2.83;;
59006;SDS011;44792;52.760;6.726;2023-05-23T16:06:13;7.30;;;2.55;;
59006;SDS011;44792;52.760;6.726;2023-05-23T16:08:39;9.18;;;1.67;;
59006;SDS011;44792;52.760;6.726;2023-05-23T16:11:04;11.02;;;1.90;;
59006;SDS011;44792;52.760;6.726;2023-05-23T16:13:30;6.68;;;1.40;;
59006;SDS011;44792;52.760;6.726;2023-05-23T16:15:56;8.55;;;1.95;;
59006;SDS011;44792;52.760;6.726;2023-05-23T16:18:22;5.38;;;2.03;;
59006;SDS011;44792;52.760;6.726;2023-05-23T16:20:47;8.02;;;2.10;;
59006;SDS011;44792;52.760;6.726;2023-05-23T16:23:13;5.10;;;1.67;;